K4AXV-13 Weather Reports


Display with metric or nautical units.
time (UTC)temp
F
wind
direction
speed
MPH
gust
MPH
rain 1hr
in
rain 24hr
in
rain mn
in
humidity
%
barometer
mb
20240523194809 86 42 2.0 4.0 0.00 0.00 0.00
20240523194310 86 97 2.0 3.0 0.00 0.00 0.00
20240523193808 87 158 3.0 3.0 0.00 0.00 0.00
20240523193309 87 308 5.0 3.0 0.00 0.00 0.00
20240523192308 87 44 2.0 1.0 0.00 0.00 0.00
20240523191308 87 122 4.0 4.0 0.00 0.00 0.00
20240523190806 87 131 3.0 4.0 0.00 0.00 0.00
20240523190308 87 191 2.0 3.0 0.00 0.00 0.00
20240523184805 87 155 6.0 5.0 0.00 0.00 0.00
20240523183805 88 138 2.0 3.0 0.00 0.00 0.00
20240523181803 89 184 1.0 1.0 0.00 0.00 0.00
20240523181304 89 188 2.0 3.0 0.00 0.00 0.00
20240523180803 89 94 0.0 0.0 0.00 0.00 0.00
20240523175303 88 73 1.0 0.0 0.00 0.00 0.00
20240523174801 89 104 3.0 4.0 0.00 0.00 0.00
20240523171759 90 225 1.0 1.0 0.00 0.00 0.00
20240523164757 89 97 2.0 3.0 0.00 0.00 0.00
20240523163757 89 318 2.0 2.0 0.00 0.00 0.00
20240523162756 89 291 3.0 3.0 0.00 0.00 0.00
20240523162257 90 65 1.0 0.0 0.00 0.00 0.00
20240523160755 90 87 1.0 1.0 0.00 0.00 0.00
20240523155754 90 323 2.0 4.0 0.00 0.00 0.00
20240523155255 89 1 2.0 1.0 0.00 0.00 0.00
20240523154754 88 343 1.0 2.0 0.00 0.00 0.00
20240523153753 87 319 3.0 2.0 0.00 0.00 0.00
20240523153254 87 321 2.0 2.0 0.00 0.00 0.00
20240523152752 86 343 3.0 2.0 0.00 0.00 0.00
20240523152253 85 280 4.0 8.0 0.00 0.00 0.00
20240523151955 84 58 2.0 1.0 0.00 0.00 0.00
20240523151253 84 58 2.0 1.0 0.00 0.00 0.00
20240523150252 83 328 3.0 3.0 0.00 0.00 0.00
20240523144251 82 287 4.0 2.0 0.00 0.00 0.00
20240523143749 81 214 4.0 5.0 0.00 0.00 0.00
20240523143250 80 0 2.0 2.0 0.00 0.00 0.00
20240523142748 80 253 3.0 3.0 0.00 0.00 0.00
20240523142250 80 269 2.0 2.0 0.00 0.00 0.00
20240523141748 80 263 2.0 2.0 0.00 0.00 0.00
20240523135248 79 280 2.0 3.0 0.00 0.00 0.00
20240523134746 79 273 3.0 7.0 0.00 0.00 0.00
20240523134247 79 315 3.0 2.0 0.00 0.00 0.00
20240523133247 78 276 1.0 1.0 0.00 0.00 0.00
20240523132335 78 340 2.0 3.0 0.00 0.00 0.00
20240523132246 78 340 2.0 3.0 0.00 0.00 0.00
20240523131826 78 250 1.0 4.0 0.00 0.00 0.00
20240523131745 78 250 1.0 4.0 0.00 0.00 0.00
20240523131435 78 260 1.0 0.0 0.00 0.00 0.00
20240523131246 78 260 1.0 0.0 0.00 0.00 0.00
20240523130834 77 305 3.0 3.0 0.00 0.00 0.00
20240523130744 77 305 3.0 3.0 0.00 0.00 0.00
20240523125849 77 0 3.0 2.0 0.00 0.00 0.00
20240523125744 77 0 3.0 2.0 0.00 0.00 0.00
20240523125406 78 253 2.0 4.0 0.00 0.00 0.00
20240523125327 78 253 2.0 4.0 0.00 0.00 0.00
20240523125244 78 253 2.0 4.0 0.00 0.00 0.00
20240523124814 77 343 2.0 2.0 0.00 0.00 0.00
20240523124743 77 343 2.0 2.0 0.00 0.00 0.00
20240523124243 77 269 0.0 0.0 0.00 0.00 0.00
20240523123850 78 332 0.0 0.0 0.00 0.00 0.00
20240523123742 78 332 0.0 0.0 0.00 0.00 0.00
20240523123422 77 315 1.0 2.0 0.00 0.00 0.00
20240523123243 77 315 1.0 2.0 0.00 0.00 0.00
20240523122243 76 323 1.0 1.0 0.00 0.00 0.00
20240523121509 74 305 0.0 0.0 0.00 0.00 0.00
20240523121431 74 305 0.0 0.0 0.00 0.00 0.00
20240523121330 74 305 0.0 0.0 0.00 0.00 0.00
20240523121243 74 305 0.0 0.0 0.00 0.00 0.00
20240523120850 73 305 0.0 0.0 0.00 0.00 0.00
20240523120741 73 305 0.0 0.0 0.00 0.00 0.00
20240523120341 71 305 0.0 0.0 0.00 0.00 0.00
20240523120242 71 305 0.0 0.0 0.00 0.00 0.00
20240523120146 69 309 1.0 0.0 0.00 0.00 0.00
20240523115828 69 309 1.0 0.0 0.00 0.00 0.00
20240523115741 69 309 1.0 0.0 0.00 0.00 0.00
20240523115514 69 311 0.0 0.0 0.00 0.00 0.00
20240523115428 69 311 0.0 0.0 0.00 0.00 0.00
20240523115333 69 311 0.0 0.0 0.00 0.00 0.00
20240523115242 69 311 0.0 0.0 0.00 0.00 0.00
20240523114920 68 335 1.0 1.0 0.00 0.00 0.00
20240523114740 68 335 1.0 1.0 0.00 0.00 0.00
20240523111313 66 257 0.0 0.0 0.00 0.00 0.00
20240523111240 66 257 0.0 0.0 0.00 0.00 0.00
20240523110334 65 304 0.0 0.0 0.00 0.00 0.00
20240523110233 65 304 0.0 0.0 0.00 0.00 0.00
20240523110202 65 304 0.0 0.0 0.00 0.00 0.00
20240523104528 66 304 0.0 0.0 0.00 0.00 0.00
20240523104238 66 304 0.0 0.0 0.00 0.00 0.00
20240523103500 65 304 0.0 0.0 0.00 0.00 0.00
20240523103403 65 304 0.0 0.0 0.00 0.00 0.00
20240523103319 65 304 0.0 0.0 0.00 0.00 0.00
20240523103238 65 304 0.0 0.0 0.00 0.00 0.00
20240523102201 65 304 0.0 0.0 0.00 0.00 0.00
20240523101310 65 304 0.0 0.0 0.00 0.00 0.00
20240523101238 65 304 0.0 0.0 0.00 0.00 0.00
20240523093842 66 314 0.0 0.0 0.00 0.00 0.00
20240523093809 66 314 0.0 0.0 0.00 0.00 0.00
20240523093733 66 314 0.0 0.0 0.00 0.00 0.00
20240523085918 66 15 0.0 0.0 0.00 0.00 0.00
20240523085733 66 15 0.0 0.0 0.00 0.00 0.00
20240523084456 65 312 0.0 0.0 0.00 0.00 0.00
20240523084425 65 312 0.0 0.0 0.00 0.00 0.00
20240523084303 65 312 0.0 0.0 0.00 0.00 0.00
20240523084231 65 312 0.0 0.0 0.00 0.00 0.00
20240523082801 65 312 0.0 0.0 0.00 0.00 0.00
20240523082729 65 312 0.0 0.0 0.00 0.00 0.00
20240523073405 66 332 0.0 0.0 0.00 0.00 0.00
20240523071843 66 332 0.0 0.0 0.00 0.00 0.00
20240523071759 66 332 0.0 0.0 0.00 0.00 0.00
20240523071725 66 332 0.0 0.0 0.00 0.00 0.00
20240523071307 66 332 0.0 0.0 0.00 0.00 0.00
20240523071226 66 332 0.0 0.0 0.00 0.00 0.00
20240523065433 66 287 0.0 0.0 0.00 0.00 0.00
20240523065407 66 287 1.0 0.0 0.00 0.00 0.00
20240523065329 66 287 0.0 0.0 0.00 0.00 0.00
20240523065258 66 287 0.0 0.0 0.00 0.00 0.00
20240523065226 66 287 0.0 0.0 0.00 0.00 0.00
20240523064834 66 287 1.0 0.0 0.00 0.00 0.00
20240523064724 66 287 1.0 0.0 0.00 0.00 0.00
20240523064309 66 291 0.0 2.0 0.00 0.00 0.00
20240523064225 66 291 0.0 2.0 0.00 0.00 0.00
20240523063043 67 243 0.0 0.0 0.00 0.00 0.00
20240523063001 67 243 0.0 0.0 0.00 0.00 0.00
20240523062755 67 243 0.0 0.0 0.00 0.00 0.00
20240523062722 67 243 0.0 0.0 0.00 0.00 0.00
20240523062258 66 243 0.0 0.0 0.00 0.00 0.00
20240523062223 66 243 0.0 0.0 0.00 0.00 0.00
20240523061415 66 243 0.0 0.0 0.00 0.00 0.00
20240523061406 66 243 0.0 0.0 0.00 0.00 0.00
20240523061256 66 243 0.0 0.0 0.00 0.00 0.00
20240523061223 66 243 0.0 0.0 0.00 0.00 0.00
20240523060756 66 243 0.0 0.0 0.00 0.00 0.00
20240523060721 66 243 0.0 0.0 0.00 0.00 0.00
20240523055406 66 291 0.0 0.0 0.00 0.00 0.00
20240523055258 66 291 0.0 0.0 0.00 0.00 0.00
20240523055221 66 291 0.0 0.0 0.00 0.00 0.00
20240523054801 66 291 0.0 0.0 0.00 0.00 0.00
20240523054719 66 291 0.0 0.0 0.00 0.00 0.00
20240523054302 66 291 0.0 0.0 0.00 0.00 0.00
20240523054220 66 291 0.0 0.0 0.00 0.00 0.00
20240523053259 66 291 0.0 0.0 0.00 0.00 0.00
20240523053220 66 291 0.0 0.0 0.00 0.00 0.00
20240523053017 65 291 0.0 0.0 0.00 0.00 0.00
20240523052802 65 291 0.0 0.0 0.00 0.00 0.00
20240523052718 65 291 0.0 0.0 0.00 0.00 0.00
20240523052333 66 291 0.0 0.0 0.00 0.00 0.00
20240523052219 66 291 0.0 0.0 0.00 0.00 0.00
20240523051801 66 291 0.0 0.0 0.00 0.00 0.00
20240523051717 66 291 0.0 0.0 0.00 0.00 0.00
20240523051307 66 291 0.0 0.0 0.00 0.00 0.00
20240523051218 66 291 0.0 0.0 0.00 0.00 0.00
20240523050817 66 291 0.0 0.0 0.00 0.00 0.00
20240523050718 66 291 0.0 0.0 0.00 0.00 0.00
20240523050307 66 291 0.0 0.0 0.00 0.00 0.00
20240523050218 66 291 0.0 0.0 0.00 0.00 0.00
20240523045813 66 291 0.0 0.0 0.00 0.00 0.00
20240523045719 66 291 0.0 0.0 0.00 0.00 0.00
20240523043816 66 291 0.0 0.0 0.00 0.00 0.00
20240523043714 66 291 0.0 0.0 0.00 0.00 0.00
20240523042835 66 291 0.0 0.0 0.00 0.00 0.00
20240523042713 66 291 0.0 0.0 0.00 0.00 0.00
20240523040850 67 291 0.0 0.0 0.00 0.00 0.00
20240523040712 67 291 0.0 0.0 0.00 0.00 0.00
20240523033813 68 291 0.0 0.0 0.00 0.00 0.00
20240523033711 68 291 0.0 0.0 0.00 0.00 0.00
20240523033306 67 291 0.0 0.0 0.00 0.00 0.00
20240523033211 67 291 0.0 0.0 0.00 0.00 0.00
20240523031811 68 280 0.0 0.0 0.00 0.00 0.00
20240523031708 68 280 0.0 0.0 0.00 0.00 0.00
20240523031410 68 280 0.0 0.0 0.00 0.00 0.00
20240523031209 68 280 0.0 0.0 0.00 0.00 0.00
20240523030746 68 280 1.0 1.0 0.00 0.00 0.00
20240523030707 68 280 1.0 1.0 0.00 0.00 0.00
20240523030252 68 11 0.0 0.0 0.00 0.00 0.00
20240523030208 68 11 0.0 0.0 0.00 0.00 0.00
20240523025753 68 11 0.0 0.0 0.00 0.00 0.00
20240523025706 68 11 0.0 0.0 0.00 0.00 0.00
20240523025318 68 11 0.0 0.0 0.00 0.00 0.00
20240523025207 68 11 0.0 0.0 0.00 0.00 0.00
20240523024742 69 11 0.0 0.0 0.00 0.00 0.00
20240523024706 69 11 0.0 0.0 0.00 0.00 0.00
20240523024329 68 11 0.0 0.0 0.00 0.00 0.00
20240523024207 68 11 0.0 0.0 0.00 0.00 0.00
20240523023818 69 11 0.0 0.0 0.00 0.00 0.00
20240523023705 69 11 0.0 0.0 0.00 0.00 0.00
20240523023206 69 11 0.0 0.0 0.00 0.00 0.00
20240523022821 69 11 0.0 0.0 0.00 0.00 0.00
20240523022705 69 11 0.0 0.0 0.00 0.00 0.00
20240523022205 69 11 0.0 0.0 0.00 0.00 0.00
20240523021758 69 11 0.0 0.0 0.00 0.00 0.00
20240523021703 69 11 0.0 0.0 0.00 0.00 0.00
20240523021327 69 11 0.0 0.0 0.00 0.00 0.00
20240523021204 69 11 0.0 0.0 0.00 0.00 0.00
20240523020204 70 11 0.0 0.0 0.00 0.00 0.00
20240523015807 70 11 0.0 0.0 0.00 0.00 0.00
20240523015702 70 11 0.0 0.0 0.00 0.00 0.00
20240523014306 71 11 0.0 0.0 0.00 0.00 0.00
20240523014203 71 11 0.0 0.0 0.00 0.00 0.00
20240523012849 71 11 0.0 0.0 0.00 0.00 0.00
20240523012701 71 11 0.0 0.0 0.00 0.00 0.00
20240523012315 71 11 0.0 0.0 0.00 0.00 0.00
20240523012202 71 11 0.0 0.0 0.00 0.00 0.00
20240523011428 72 11 0.0 0.0 0.00 0.00 0.00
20240523011201 72 11 0.0 0.0 0.00 0.00 0.00
20240523010854 72 11 0.0 0.0 0.00 0.00 0.00
20240523010658 72 11 0.0 0.0 0.00 0.00 0.00
20240523005814 73 65 0.0 0.0 0.00 0.00 0.00
20240523005659 73 65 0.0 0.0 0.00 0.00 0.00
20240523004735 73 65 0.0 0.0 0.00 0.00 0.00
20240523004658 73 65 0.0 0.0 0.00 0.00 0.00
20240523003749 73 65 0.0 0.0 0.00 0.00 0.00
20240523003657 73 65 0.0 0.0 0.00 0.00 0.00
20240523002803 74 65 0.0 0.0 0.00 0.00 0.00
20240523002656 74 65 0.0 0.0 0.00 0.00 0.00
20240523002313 74 65 0.0 0.0 0.00 0.00 0.00
20240523002158 74 65 0.0 0.0 0.00 0.00 0.00
20240522235830 75 65 0.0 0.0 0.00 0.00 0.00
20240522235654 75 65 0.0 0.0 0.00 0.00 0.00
20240522235156 77 65 0.0 0.0 0.00 0.00 0.00
20240522235043 76 65 0.0 0.0 0.00 0.00 0.00
20240522234654 76 65 0.0 0.0 0.00 0.00 0.00
20240522232107 77 59 0.0 0.0 0.00 0.00 0.00
20240522231652 77 59 0.0 0.0 0.00 0.00 0.00
20240522230644 78 97 0.0 0.0 0.00 0.00 0.00
20240522230153 78 97 0.0 0.0 0.00 0.00 0.00
20240522225651 78 62 2.0 2.0 0.00 0.00 0.00
20240522225152 78 49 0.0 0.0 0.00 0.00 0.00
20240522222417 79 142 4.0 3.0 0.00 0.00 0.00
20240522222150 79 142 4.0 3.0 0.00 0.00 0.00
20240522222117 79 68 2.0 1.0 0.00 0.00 0.00
20240522221649 79 68 2.0 1.0 0.00 0.00 0.00
20240522221150 80 124 2.0 2.0 0.00 0.00 0.00
20240522220648 79 231 2.0 3.0 0.00 0.00 0.00
20240522220149 80 198 1.0 0.0 0.00 0.00 0.00
20240522215647 80 274 1.0 1.0 0.00 0.00 0.00
20240522215149 80 163 2.0 3.0 0.00 0.00 0.00
20240522214647 80 127 2.0 2.0 0.00 0.00 0.00
20240522214148 80 152 4.0 4.0 0.00 0.00 0.00
20240522213744 80 136 4.0 2.0 0.00 0.00 0.00
20240522213646 80 118 3.0 3.0 0.00 0.00 0.00
20240522213147 80 136 4.0 2.0 0.00 0.00 0.00
20240522212646 80 113 3.0 2.0 0.00 0.00 0.00
20240522212147 80 94 4.0 3.0 0.00 0.00 0.00
20240522210644 80 115 3.0 4.0 0.00 0.00 0.00
20240522205644 80 107 6.0 7.0 0.00 0.00 0.00
20240522203643 81 148 4.0 5.0 0.00 0.00 0.00
20240522203144 81 127 4.0 2.0 0.00 0.00 0.00
20240522202643 80 103 5.0 8.0 0.00 0.00 0.00
20240522201642 81 127 8.0 7.0 0.00 0.00 0.00
20240522201143 81 127 5.0 6.0 0.00 0.00 0.00
20240522200641 81 138 5.0 6.0 0.00 0.00 0.00
20240522200142 81 124 5.0 3.0 0.00 0.00 0.00
20240522195641 82 156 3.0 5.0 0.00 0.00 0.00